createdAt,value
2019-03-10T00:00:32.465Z,74.50
2019-03-10T00:05:26.450Z,74.34
2019-03-10T00:10:20.411Z,74.24
2019-03-10T00:15:14.423Z,73.97
2019-03-10T00:20:09.201Z,73.41
2019-03-10T00:25:05.281Z,73.39
2019-03-10T00:29:59.228Z,73.39
2019-03-10T00:34:53.072Z,73.09
2019-03-10T00:40:02.781Z,72.99
2019-03-10T00:45:34.455Z,72.59
2019-03-10T00:50:32.132Z,72.58
2019-03-10T00:55:26.455Z,72.96
2019-03-10T01:00:20.415Z,72.64
2019-03-10T01:05:14.445Z,72.40
2019-03-10T01:10:08.597Z,72.40
2019-03-10T01:15:05.853Z,72.15
2019-03-10T01:19:59.996Z,71.83
2019-03-10T01:24:53.867Z,71.47
2019-03-10T01:29:47.714Z,71.46
2019-03-10T01:34:51.537Z,71.25
2019-03-10T01:39:45.395Z,70.98
2019-03-10T01:44:39.245Z,70.88
2019-03-10T01:49:33.113Z,70.76
2019-03-10T01:54:27.057Z,70.71
2019-03-10T01:59:20.903Z,70.98
2019-03-10T02:04:14.789Z,70.71
2019-03-10T02:09:08.641Z,70.29
2019-03-10T02:14:02.499Z,69.77
2019-03-10T02:18:56.357Z,70.04
2019-03-10T02:23:50.349Z,70.27
2019-03-10T02:28:44.188Z,70.41
2019-03-10T02:33:38.016Z,70.54
2019-03-10T02:38:31.860Z,70.70
2019-03-10T02:43:25.710Z,71.17
2019-03-10T02:48:19.571Z,71.10
2019-03-10T02:53:13.422Z,71.05
2019-03-10T02:58:07.263Z,71.37
2019-03-10T03:03:01.149Z,72.27
2019-03-10T03:07:55.150Z,72.37
2019-03-10T03:12:49.105Z,73.38
2019-03-10T03:17:43.069Z,74.29
2019-03-10T03:22:37.016Z,74.72
2019-03-10T03:27:30.861Z,75.93
2019-03-10T03:32:24.918Z,76.40
2019-03-10T03:37:18.900Z,76.43
2019-03-10T03:42:12.870Z,78.04
2019-03-10T03:47:06.762Z,77.92
2019-03-10T03:52:00.604Z,78.53
2019-03-10T03:56:54.470Z,79.04
2019-03-10T04:01:50.192Z,79.53
2019-03-10T04:06:44.217Z,80.59
2019-03-10T04:11:38.063Z,81.33
2019-03-10T04:16:31.916Z,80.94
2019-03-10T04:21:25.793Z,81.77
2019-03-10T04:26:19.642Z,82.11
2019-03-10T04:31:13.521Z,82.46
2019-03-10T04:36:07.368Z,82.49
2019-03-10T04:41:01.213Z,82.36
2019-03-10T04:45:55.264Z,83.05
2019-03-10T04:50:49.129Z,83.04
2019-03-10T04:55:47.803Z,83.46
2019-03-10T05:00:43.631Z,83.96
2019-03-10T05:05:37.530Z,84.29
2019-03-10T05:10:31.396Z,84.69
2019-03-10T05:15:25.536Z,85.10
2019-03-10T05:20:19.388Z,85.46
2019-03-10T05:25:21.197Z,85.81
2019-03-10T05:30:15.036Z,86.29
2019-03-10T05:35:09.004Z,86.60
2019-03-10T05:40:04.821Z,86.78
2019-03-10T05:44:58.661Z,87.07
2019-03-10T05:49:52.516Z,87.31
2019-03-10T05:54:46.373Z,87.42
2019-03-10T05:59:40.319Z,87.26
2019-03-10T06:04:34.208Z,87.26
2019-03-10T06:09:28.176Z,87.13
2019-03-10T06:14:22.042Z,87.14
2019-03-10T06:19:15.895Z,87.11
2019-03-10T06:24:09.978Z,87.09
2019-03-10T06:29:03.951Z,87.14
2019-03-10T06:33:57.909Z,87.35
2019-03-10T06:38:51.769Z,87.34
2019-03-10T06:43:45.608Z,87.01
2019-03-10T06:48:39.469Z,86.93
2019-03-10T06:53:33.336Z,86.85
2019-03-10T06:58:27.184Z,87.07
2019-03-10T07:03:21.048Z,86.98
2019-03-10T07:08:15.005Z,86.56
2019-03-10T07:13:08.851Z,86.21
2019-03-10T07:18:02.913Z,85.56
2019-03-10T07:22:56.996Z,85.84
2019-03-10T07:27:55.571Z,86.66
2019-03-10T07:32:54.333Z,86.83
2019-03-10T07:37:50.075Z,86.51
2019-03-10T07:42:45.850Z,86.18
2019-03-10T07:47:41.637Z,85.75
2019-03-10T07:52:37.490Z,85.05
2019-03-10T07:57:33.381Z,84.86
2019-03-10T08:02:34.815Z,85.26
2019-03-10T08:07:33.359Z,85.09
2019-03-10T08:12:34.943Z,84.38
2019-03-10T08:17:30.728Z,84.49
2019-03-10T08:22:26.495Z,85.70
2019-03-10T08:27:28.543Z,85.42
2019-03-10T08:32:26.936Z,85.28
2019-03-10T08:37:28.780Z,86.35
2019-03-10T08:42:24.526Z,83.81
2019-03-10T08:47:26.389Z,84.02
2019-03-10T08:52:38.756Z,83.65
2019-03-10T08:57:34.512Z,83.26
2019-03-10T09:02:33.273Z,82.97
2019-03-10T09:07:41.182Z,79.77
2019-03-10T09:12:46.087Z,77.39
2019-03-10T09:17:48.133Z,77.37
2019-03-10T09:22:46.702Z,76.74
2019-03-10T09:27:48.518Z,76.39
2019-03-10T09:32:47.582Z,78.01
2019-03-10T09:38:00.221Z,77.96
2019-03-10T09:43:02.051Z,78.48
2019-03-10T09:48:14.809Z,79.04
2019-03-10T09:53:16.758Z,81.32
2019-03-10T09:58:12.526Z,84.52
2019-03-10T10:03:08.281Z,88.20
2019-03-10T10:08:20.998Z,89.49
2019-03-10T10:13:25.548Z,89.98
2019-03-10T10:18:24.535Z,89.48
2019-03-10T10:23:37.206Z,88.57
2019-03-10T10:28:49.591Z,84.12
2019-03-10T10:33:48.289Z,81.29
2019-03-10T10:38:46.994Z,79.96
2019-03-10T10:43:42.771Z,79.22
2019-03-10T10:48:38.762Z,81.32
2019-03-10T10:53:49.903Z,79.49
2019-03-10T10:58:48.711Z,76.28
2019-03-10T11:04:01.221Z,72.08
2019-03-10T11:08:57.020Z,70.13
2019-03-10T11:13:58.906Z,63.44
2019-03-10T11:18:54.797Z,62.42
2019-03-10T11:23:59.366Z,61.91
2019-03-10T11:29:00.901Z,66.43
2019-03-10T11:34:12.840Z,76.03
2019-03-10T11:39:14.451Z,76.21
2019-03-10T11:44:16.249Z,78.46
2019-03-10T11:49:18.074Z,81.58
2019-03-10T11:54:23.013Z,78.73
2019-03-10T11:59:18.931Z,68.77
2019-03-10T12:04:17.440Z,52.52
2019-03-10T12:09:20.471Z,52.81
2019-03-10T12:14:14.354Z,54.65
2019-03-10T12:19:08.252Z,57.44
2019-03-10T12:24:02.353Z,62.13
2019-03-10T12:28:56.331Z,59.97
2019-03-10T12:33:50.347Z,63.21
2019-03-10T12:38:44.341Z,66.48
2019-03-10T12:43:38.379Z,75.44
2019-03-10T12:48:32.398Z,77.42
2019-03-10T12:53:26.283Z,78.10
2019-03-10T12:58:20.360Z,78.76
2019-03-10T13:03:14.263Z,79.13
2019-03-10T13:08:08.171Z,80.27
2019-03-10T13:13:02.117Z,73.44
2019-03-10T13:17:56.084Z,57.34
2019-03-10T13:22:49.931Z,46.30
2019-03-10T13:27:43.894Z,54.31
2019-03-10T13:32:37.813Z,57.88
2019-03-10T13:37:31.792Z,57.88
2019-03-10T13:42:25.762Z,40.69
2019-03-10T13:47:19.766Z,46.43
2019-03-10T13:52:13.738Z,33.14
2019-03-10T13:57:07.743Z,27.23
2019-03-10T14:02:01.745Z,38.83
2019-03-10T14:06:55.651Z,41.83
2019-03-10T14:11:49.555Z,47.69
2019-03-10T14:16:43.556Z,41.90
2019-03-10T14:21:37.451Z,29.40
2019-03-10T14:26:31.528Z,34.18
2019-03-10T14:31:25.742Z,43.64
2019-03-10T14:36:19.723Z,43.11
2019-03-10T14:41:13.810Z,45.33
2019-03-10T14:46:07.888Z,33.73
2019-03-10T14:51:01.953Z,31.63
2019-03-10T14:55:56.046Z,42.64
2019-03-10T15:00:50.035Z,42.66
2019-03-10T15:05:44.044Z,44.48
2019-03-10T15:10:38.013Z,48.57
2019-03-10T15:15:31.933Z,39.35
2019-03-10T15:20:25.839Z,25.29
2019-03-10T15:25:21.013Z,25.60
2019-03-10T15:30:22.684Z,26.03
2019-03-10T15:35:17.037Z,23.70
2019-03-10T15:40:15.276Z,23.84
2019-03-10T15:45:17.252Z,23.26
2019-03-10T15:50:33.241Z,27.80
2019-03-10T15:55:27.186Z,39.48
2019-03-10T16:00:23.694Z,46.85
2019-03-10T16:05:17.699Z,49.09
2019-03-10T16:10:12.888Z,50.85
2019-03-10T16:15:18.897Z,52.12
2019-03-10T16:20:13.490Z,52.33
2019-03-10T16:25:10.298Z,53.78
2019-03-10T16:30:10.763Z,55.12
2019-03-10T16:35:06.943Z,56.82
2019-03-10T16:40:01.398Z,61.93
2019-03-10T16:44:55.282Z,66.47
2019-03-10T16:49:49.169Z,69.85
2019-03-10T16:54:43.166Z,72.43
2019-03-10T16:59:37.027Z,73.43
2019-03-10T17:04:31.031Z,71.12
2019-03-10T17:09:25.107Z,72.91
2019-03-10T17:14:19.081Z,73.32
2019-03-10T17:19:13.075Z,73.18
2019-03-10T17:24:06.956Z,72.26
2019-03-10T17:29:00.845Z,71.71
2019-03-10T17:33:55.217Z,71.89
2019-03-10T17:38:49.140Z,70.48
2019-03-10T17:43:43.025Z,70.63
2019-03-10T17:48:37.024Z,69.99
2019-03-10T17:53:31.058Z,69.56
2019-03-10T17:58:24.961Z,67.81
2019-03-10T18:03:19.097Z,65.41
2019-03-10T18:08:12.992Z,63.28
2019-03-10T18:13:06.988Z,62.91
2019-03-10T18:18:00.994Z,61.77
2019-03-10T18:22:55.186Z,60.75
2019-03-10T18:27:49.536Z,59.86
2019-03-10T18:32:43.533Z,59.11
2019-03-10T18:37:37.556Z,60.28
2019-03-10T18:42:31.573Z,58.80
2019-03-10T18:47:25.476Z,58.38
2019-03-10T18:52:20.424Z,58.63
2019-03-10T18:57:14.361Z,57.73
2019-03-10T19:02:08.376Z,57.02
2019-03-10T19:07:02.784Z,56.16
2019-03-10T19:11:56.725Z,56.47
2019-03-10T19:16:50.908Z,56.82
2019-03-10T19:21:44.903Z,57.32
2019-03-10T19:26:38.922Z,57.75
2019-03-10T19:31:33.246Z,58.34
2019-03-10T19:36:27.206Z,57.92
2019-03-10T19:41:21.225Z,58.97
2019-03-10T19:46:15.301Z,59.41
2019-03-10T19:51:09.451Z,59.11
2019-03-10T19:56:04.120Z,59.11
2019-03-10T20:00:58.189Z,59.13
2019-03-10T20:05:52.258Z,59.60
2019-03-10T20:10:46.150Z,60.40
2019-03-10T20:15:40.024Z,66.64
2019-03-10T20:20:34.261Z,70.48
2019-03-10T20:25:28.393Z,76.32
2019-03-10T20:30:28.309Z,79.35
2019-03-10T20:35:22.303Z,81.42
2019-03-10T20:40:20.005Z,83.90
2019-03-10T20:45:14.142Z,85.13
2019-03-10T20:50:10.644Z,85.60
2019-03-10T20:55:06.648Z,85.11
2019-03-10T21:00:01.231Z,85.55
2019-03-10T21:04:55.350Z,85.47
2019-03-10T21:09:49.313Z,86.46
2019-03-10T21:14:43.395Z,86.77
2019-03-10T21:19:37.321Z,86.88
2019-03-10T21:24:31.406Z,86.54
2019-03-10T21:29:25.405Z,86.87
2019-03-10T21:34:19.505Z,87.33
2019-03-10T21:39:13.635Z,87.58
2019-03-10T21:44:07.529Z,87.60
2019-03-10T21:49:01.771Z,87.47
2019-03-10T21:53:55.641Z,87.51
2019-03-10T21:58:49.830Z,87.76
2019-03-10T22:03:43.679Z,87.81
2019-03-10T22:08:37.570Z,87.89
2019-03-10T22:13:31.546Z,87.95
2019-03-10T22:18:25.519Z,87.96
2019-03-10T22:23:19.536Z,88.02
2019-03-10T22:28:13.517Z,88.20
2019-03-10T22:33:07.390Z,88.51
2019-03-10T22:38:01.273Z,88.71
2019-03-10T22:42:55.167Z,88.82
2019-03-10T22:47:49.047Z,88.96
2019-03-10T22:52:43.422Z,89.21
2019-03-10T22:57:37.466Z,89.03
2019-03-10T23:02:31.321Z,88.95
2019-03-10T23:07:25.197Z,89.17
2019-03-10T23:12:19.145Z,89.00
2019-03-10T23:17:12.993Z,87.92
2019-03-10T23:22:06.956Z,81.44
2019-03-10T23:27:00.814Z,78.09
2019-03-10T23:31:54.778Z,78.99
2019-03-10T23:36:48.749Z,77.19
2019-03-10T23:41:42.712Z,77.77
2019-03-10T23:46:36.564Z,78.34
2019-03-10T23:51:30.418Z,77.15
2019-03-10T23:56:24.277Z,77.24
